Teniente Jaime Morales Airport (SPEO) - Jet Charter Services

AIRPORT INFORMATION
ICAOSPEO
IATACHM
LOCATIONCHIMBOTE, PERU
FACILITY TYPEAIRPORT
Runway Length (ft) Width (ft) Surface Type Elevation (ft)
19/01 5905 98 ASP 65.96721

At Paramount Business Jets you can hire chartered private jets to and from Teniente Jaime Morales Airport with as little as 4 hours of notice. All flights booked via Paramount Business Jets are operated by certified direct air carriers that meet and exceed the FAA part 135 and 121 protocol or a foreign equivalent safety authority. Furthermore, Paramount Business Jets subscribes to ARGUS for their third party safety checks of operators, aircraft, and crews prior each and every flight to and from Teniente Jaime Morales Airport and worldwide.

  • Quote a trip using Teniente Jaime Morales Airport or call us 24/7 - 365 days a year at +1-877-727-2538.
 

Weather at Teniente Jaime Morales Airport, SPEO, CHM

STATIONSPEO
OBSERVEDMon Nov 12, 11:00 EST
NOWSat Apr 19, 07:56 EDT
AGE12547:56 hr ago
WINDS at 15 mph
VISIBILITYgreater than 7 miles
CLOUDSclear skies
TEMP73°F (23°C)
DEWPT61°F (16°C)
HUMIDITY65%
BAROMETER1014 hPa (29.94 in Hg)
METARSPEO 121500Z 19013KT CAVOK 23/16 Q1014 RMK BIRD HAZARD RWY 01 PP000

Airports near Teniente Jaime Morales Airport, SPEO, CHM